Time;durP1;ratioP1;P1;durP2;ratioP2;P2;SDS_P1;SDS_P2;PMS_P1;PMS_P2;Temp;Humidity;BMP_temperature;BMP_pressure;BME280_temperature;BME280_humidity;BME280_pressure;Samples;Min_cycle;Max_cycle;Signal;HPM_P1;HPM_P2
2021/11/21 00:00:11;;;;;;;21.58;14.90;;;;;;;9.04;78.41;100569.50;5032453;28;20057;-53
2021/11/21 00:02:36;;;;;;;22.42;15.10;;;;;;;9.05;78.46;100571.25;5032356;28;20043;-54
2021/11/21 00:05:02;;;;;;;22.17;14.95;;;;;;;9.05;78.02;100576.53;5033469;28;20032;-54
2021/11/21 00:07:27;;;;;;;21.92;15.20;;;;;;;9.03;78.21;100570.38;5033327;28;20140;-54
2021/11/21 00:09:53;;;;;;;22.10;15.35;;;;;;;9.05;78.21;100576.53;5033653;28;20056;-53
2021/11/21 00:12:18;;;;;;;21.58;15.07;;;;;;;9.06;78.16;100578.25;5030786;28;20032;-54
2021/11/21 00:14:44;;;;;;;22.02;15.73;;;;;;;9.04;78.11;100568.63;5033080;28;20391;-54
2021/11/21 00:17:09;;;;;;;22.77;15.15;;;;;;;9.03;78.25;100557.22;5031174;28;20083;-53
2021/11/21 00:19:35;;;;;;;21.02;14.05;;;;;;;9.06;78.50;100566.84;5032952;28;20033;-54
2021/11/21 00:22:01;;;;;;;22.25;14.40;;;;;;;9.05;78.41;100565.13;5039762;28;20037;-54
2021/11/21 00:24:26;;;;;;;22.40;15.13;;;;;;;9.05;78.37;100559.84;5032185;28;20108;-53
2021/11/21 00:26:51;;;;;;;21.92;15.13;;;;;;;9.03;78.45;100557.22;5031902;28;20033;-53
2021/11/21 00:29:16;;;;;;;20.90;14.75;;;;;;;9.03;78.85;100551.97;5032886;28;20471;-53
2021/11/21 00:31:42;;;;;;;20.42;14.82;;;;;;;9.04;78.68;100558.97;5029488;28;20069;-53
2021/11/21 00:34:07;;;;;;;20.20;14.50;;;;;;;9.04;78.31;100558.97;5014364;28;20022;-54
2021/11/21 00:36:32;;;;;;;22.13;14.65;;;;;;;9.03;79.32;100546.69;5012164;28;20049;-53
2021/11/21 00:38:58;;;;;;;22.80;13.90;;;;;;;9.01;78.76;100548.47;5013411;28;20042;-53
2021/11/21 00:41:23;;;;;;;21.10;15.07;;;;;;;9.02;78.21;100542.31;5022502;28;20530;-54
2021/11/21 00:43:48;;;;;;;22.23;14.32;;;;;;;9.01;78.69;100540.59;5031830;28;20060;-52
2021/11/21 00:46:14;;;;;;;23.55;15.73;;;;;;;9.01;78.45;100535.31;5030328;28;20025;-53
2021/11/21 00:48:40;;;;;;;21.80;14.65;;;;;;;9.00;78.32;100536.19;5040641;28;20124;-51
2021/11/21 00:51:06;;;;;;;20.08;14.00;;;;;;;9.01;78.29;100535.31;5026081;28;20626;-51
2021/11/21 00:53:32;;;;;;;23.95;15.43;;;;;;;9.00;78.36;100535.34;5027658;28;20104;-51
2021/11/21 00:56:04;;;;;;;19.58;14.32;;;;;;;9.00;78.64;100543.22;5031433;28;20032;-51
2021/11/21 00:58:34;;;;;;;21.75;14.75;;;;;;;9.00;78.15;100530.94;5031754;28;20037;-50
2021/11/21 01:01:00;;;;;;;21.83;15.20;;;;;;;9.01;79.35;100530.06;5031312;28;21405;-51
2021/11/21 01:03:26;;;;;;;22.10;14.15;;;;;;;9.00;78.16;100530.06;5031408;28;20034;-51
2021/11/21 01:05:54;;;;;;;22.85;15.38;;;;;;;9.00;78.26;100533.56;5020064;28;20057;-53
2021/11/21 01:08:20;;;;;;;22.35;15.63;;;;;;;8.98;78.54;100527.44;5033500;28;20021;-51
2021/11/21 01:10:47;;;;;;;23.50;15.57;;;;;;;8.98;78.77;100527.44;5022764;28;20379;-51
2021/11/21 01:13:13;;;;;;;22.60;15.98;;;;;;;8.97;78.32;100520.44;5031167;28;20147;-52
2021/11/21 01:15:39;;;;;;;22.85;15.45;;;;;;;8.97;78.95;100520.44;5030684;28;20068;-50
2021/11/21 01:18:05;;;;;;;22.23;15.73;;;;;;;8.95;78.52;100522.19;5031098;28;20432;-51
2021/11/21 01:20:32;;;;;;;21.50;14.55;;;;;;;8.98;78.57;100524.81;5031097;28;20025;-51
2021/11/21 01:22:58;;;;;;;22.20;14.93;;;;;;;8.95;78.49;100516.94;5031711;28;20029;-51
2021/11/21 01:25:27;;;;;;;21.67;14.20;;;;;;;8.96;79.30;100510.78;5027724;28;20026;-52
2021/11/21 01:27:53;;;;;;;24.35;15.43;;;;;;;8.93;78.89;100510.78;5024703;28;20021;-51
2021/11/21 01:30:23;;;;;;;20.35;14.50;;;;;;;8.93;78.40;100514.31;5026334;28;20076;-51
2021/11/21 01:32:48;;;;;;;22.60;16.40;;;;;;;8.95;79.09;100511.66;5011759;28;20037;-50
2021/11/21 01:35:14;;;;;;;20.42;14.10;;;;;;;8.93;78.68;100505.53;5031121;28;20033;-53
2021/11/21 01:37:40;;;;;;;23.45;15.20;;;;;;;8.89;78.93;100506.44;5030758;28;20064;-51
2021/11/21 01:40:09;;;;;;;22.15;15.10;;;;;;;8.93;78.56;100508.16;5031454;28;20029;-50
2021/11/21 01:42:34;;;;;;;23.88;15.55;;;;;;;8.92;79.02;100501.16;5030486;28;20106;-50
2021/11/21 01:45:00;;;;;;;22.27;15.48;;;;;;;8.91;78.52;100487.16;5030756;28;20471;-51
2021/11/21 01:47:25;;;;;;;24.98;15.68;;;;;;;8.92;79.19;100496.78;5031740;28;20533;-53
2021/11/21 01:49:51;;;;;;;22.33;15.13;;;;;;;8.90;78.47;100489.78;5031061;28;20132;-50
2021/11/21 01:52:16;;;;;;;20.35;14.23;;;;;;;8.90;78.80;100489.78;5031077;28;20033;-50
2021/11/21 01:54:41;;;;;;;22.45;15.05;;;;;;;8.90;78.69;100492.41;5031341;28;20414;-51
2021/11/21 01:57:07;;;;;;;19.35;14.20;;;;;;;8.89;78.83;100488.00;5030448;28;20057;-53
2021/11/21 01:59:34;;;;;;;24.38;16.33;;;;;;;8.89;78.78;100486.28;5030686;28;20458;-52
2021/11/21 02:02:02;;;;;;;20.73;15.10;;;;;;;8.87;78.83;100474.88;5030552;28;20056;-51
2021/11/21 02:04:27;;;;;;;21.70;15.00;;;;;;;8.88;79.00;100473.13;5031181;28;20038;-52
2021/11/21 02:06:53;;;;;;;20.80;13.82;;;;;;;8.87;79.10;100472.25;5013730;28;20033;-51
2021/11/21 02:09:18;;;;;;;20.08;13.98;;;;;;;8.87;78.83;100466.13;5030721;28;20032;-53
2021/11/21 02:11:43;;;;;;;22.88;14.88;;;;;;;8.85;78.55;100464.38;5034711;28;20067;-54
2021/11/21 02:14:09;;;;;;;21.58;14.45;;;;;;;8.87;79.01;100458.25;5033723;28;20083;-51
2021/11/21 02:16:34;;;;;;;21.75;14.63;;;;;;;8.84;78.98;100449.47;5035054;28;20044;-52
2021/11/21 02:19:00;;;;;;;20.23;13.65;;;;;;;8.87;79.04;100456.47;5035272;28;20533;-52
2021/11/21 02:21:28;;;;;;;19.65;13.82;;;;;;;8.87;79.46;100456.47;5033708;28;20034;-51
2021/11/21 02:23:54;;;;;;;22.88;15.55;;;;;;;8.83;79.00;100450.34;5034497;28;20036;-52
2021/11/21 02:26:22;;;;;;;20.90;13.65;;;;;;;8.84;79.02;100451.25;5034670;28;20021;-55
2021/11/21 02:28:49;;;;;;;20.83;13.68;;;;;;;8.85;78.78;100455.63;5034311;28;20017;-51
2021/11/21 02:31:15;;;;;;;18.98;14.20;;;;;;;8.84;78.98;100441.56;5033961;28;20025;-52
2021/11/21 02:33:44;;;;;;;18.23;12.90;;;;;;;8.84;79.35;100448.63;5033519;28;20422;-51
2021/11/21 02:36:09;;;;;;;18.40;12.70;;;;;;;8.84;78.85;100441.56;5034612;28;20438;-51
2021/11/21 02:38:38;;;;;;;19.27;13.55;;;;;;;8.84;79.29;100438.94;5034084;28;20025;-51
2021/11/21 02:41:06;;;;;;;20.05;12.80;;;;;;;8.82;79.50;100430.22;5034162;28;20959;-53
2021/11/21 02:43:32;;;;;;;20.17;13.75;;;;;;;8.82;78.94;100430.22;5030814;28;20064;-51
2021/11/21 02:45:57;;;;;;;17.08;12.20;;;;;;;8.82;78.99;100422.31;5043636;28;20024;-51
2021/11/21 02:48:26;;;;;;;20.70;13.32;;;;;;;8.83;79.36;100417.91;5034054;28;20041;-53
2021/11/21 02:50:52;;;;;;;17.60;13.13;;;;;;;8.82;79.33;100414.44;5034551;28;20033;-54
2021/11/21 02:53:19;;;;;;;19.55;13.43;;;;;;;8.82;78.90;100411.81;5027772;28;20037;-51
2021/11/21 02:55:45;;;;;;;16.85;12.80;;;;;;;8.82;79.14;100411.81;5031743;28;20018;-53
2021/11/21 02:58:11;;;;;;;18.25;12.52;;;;;;;8.82;78.84;100406.53;5034036;28;20040;-51
2021/11/21 03:00:40;;;;;;;17.13;12.60;;;;;;;8.82;79.31;100400.41;5033892;28;20026;-50
2021/11/21 03:03:05;;;;;;;17.35;13.00;;;;;;;8.82;79.50;100413.53;5032927;28;20036;-56
2021/11/21 03:05:35;;;;;;;19.33;13.00;;;;;;;8.81;79.14;100410.03;5034321;28;20507;-53
2021/11/21 03:08:01;;;;;;;18.73;12.88;;;;;;;8.80;78.94;100403.03;5033971;28;20087;-51
2021/11/21 03:10:28;;;;;;;17.73;13.10;;;;;;;8.82;78.97;100400.41;5033464;28;20021;-53
2021/11/21 03:12:57;;;;;;;17.63;12.23;;;;;;;8.80;78.96;100396.91;5032656;28;20684;-51
2021/11/21 03:15:23;;;;;;;19.77;14.18;;;;;;;8.78;79.27;100394.28;5034004;28;20028;-51
2021/11/21 03:17:49;;;;;;;16.85;12.27;;;;;;;8.81;78.99;100390.78;5034101;28;20029;-52
2021/11/21 03:20:17;;;;;;;21.50;13.35;;;;;;;8.80;79.65;100395.16;5033112;28;20084;-54
2021/11/21 03:22:43;;;;;;;17.52;12.23;;;;;;;8.80;79.58;100394.28;5031156;28;20029;-50
2021/11/21 03:25:10;;;;;;;16.98;12.52;;;;;;;8.80;78.83;100396.91;5031867;28;20410;-51
2021/11/21 03:27:36;;;;;;;17.70;12.30;;;;;;;8.80;79.43;100397.78;5032625;28;20021;-55
2021/11/21 03:30:03;;;;;;;16.70;11.90;;;;;;;8.80;79.22;100391.66;5033200;28;20032;-51
2021/11/21 03:32:32;;;;;;;17.33;12.38;;;;;;;8.79;79.31;100390.78;5014492;28;20133;-52
2021/11/21 03:35:01;;;;;;;16.95;12.48;;;;;;;8.79;79.10;100389.88;5032907;28;20124;-51
2021/11/21 03:37:27;;;;;;;19.13;12.52;;;;;;;8.77;78.90;100376.75;5032872;28;20040;-51
2021/11/21 03:39:53;;;;;;;17.25;11.80;;;;;;;8.78;79.34;100381.16;5032386;28;20025;-50
2021/11/21 03:42:21;;;;;;;16.48;11.63;;;;;;;8.77;79.36;100376.75;5031549;28;20517;-51
2021/11/21 03:44:46;;;;;;;19.88;12.75;;;;;;;8.78;78.95;100381.16;5033409;28;20029;-51
2021/11/21 03:47:12;;;;;;;17.60;12.38;;;;;;;8.76;79.02;100364.50;5032861;28;20079;-51
2021/11/21 03:49:37;;;;;;;16.08;12.25;;;;;;;8.78;78.99;100368.00;5033443;28;20029;-53
2021/11/21 03:52:04;;;;;;;17.35;10.82;;;;;;;8.77;79.07;100360.97;5032079;28;20454;-52
2021/11/21 03:54:29;;;;;;;18.98;13.20;;;;;;;8.78;79.00;100362.75;5033475;28;20017;-51
2021/11/21 03:56:54;;;;;;;17.33;11.80;;;;;;;8.77;78.82;100362.75;5032116;28;20029;-51
2021/11/21 03:59:20;;;;;;;17.77;11.85;;;;;;;8.76;79.22;100359.22;5031562;28;20021;-54
2021/11/21 04:01:49;;;;;;;16.77;11.80;;;;;;;8.78;79.20;100361.84;5026777;28;20046;-51
2021/11/21 04:04:14;;;;;;;17.58;11.98;;;;;;;8.76;79.23;100353.97;5010051;28;20041;-56
2021/11/21 04:06:39;;;;;;;18.48;12.50;;;;;;;8.75;78.91;100351.34;5032439;28;20029;-50
2021/11/21 04:09:20;;;;;;;17.75;11.57;;;;;;;8.77;80.27;100349.59;5033402;28;20025;-51
2021/11/21 04:11:46;;;;;;;16.13;11.15;;;;;;;8.76;79.35;100348.72;5032728;28;20025;-53
2021/11/21 04:14:11;;;;;;;16.80;12.38;;;;;;;8.76;79.33;100337.31;5031943;28;20100;-53
2021/11/21 04:16:36;;;;;;;16.48;11.10;;;;;;;8.75;79.04;100325.06;5031847;28;20037;-52
2021/11/21 04:19:06;;;;;;;15.60;11.75;;;;;;;8.74;79.15;100316.31;5032484;28;20533;-50
2021/11/21 04:21:31;;;;;;;16.92;11.52;;;;;;;8.74;79.19;100308.44;5032491;28;20049;-51
2021/11/21 04:23:57;;;;;;;17.02;11.23;;;;;;;8.72;78.82;100291.78;5031893;28;20076;-53
2021/11/21 04:26:23;;;;;;;17.67;11.45;;;;;;;8.73;79.54;100291.75;5032567;28;20463;-50
2021/11/21 04:28:48;;;;;;;17.25;11.18;;;;;;;8.75;79.03;100289.13;5032936;28;20360;-54
2021/11/21 04:31:14;;;;;;;19.13;12.38;;;;;;;8.73;79.14;100294.41;5032250;28;20139;-53
2021/11/21 04:33:39;;;;;;;16.55;11.63;;;;;;;8.74;78.99;100284.75;5031220;28;20051;-51
2021/11/21 04:36:07;;;;;;;16.88;11.38;;;;;;;8.71;78.80;100274.25;5029577;28;20116;-51
2021/11/21 04:38:36;;;;;;;17.73;11.82;;;;;;;8.73;79.31;100272.47;5030179;28;20041;-51
2021/11/21 04:41:01;;;;;;;18.40;12.43;;;;;;;8.73;78.82;100275.09;5031476;28;20025;-53
2021/11/21 04:43:27;;;;;;;18.80;12.85;;;;;;;8.73;79.50;100283.88;5030534;28;20562;-51
2021/11/21 04:45:58;;;;;;;18.95;13.40;;;;;;;8.74;79.16;100282.13;5031185;28;20032;-51
2021/11/21 04:48:25;;;;;;;18.17;11.70;;;;;;;8.73;79.18;100270.72;5032652;28;20036;-53
2021/11/21 04:50:50;;;;;;;16.60;12.10;;;;;;;8.72;79.20;100269.00;5030734;28;20033;-51
2021/11/21 04:53:16;;;;;;;16.20;11.32;;;;;;;8.72;79.41;100269.00;5032240;28;20021;-51
2021/11/21 04:55:44;;;;;;;17.33;12.63;;;;;;;8.72;78.86;100273.38;5031128;28;20608;-51
2021/11/21 04:58:09;;;;;;;16.20;11.77;;;;;;;8.71;78.89;100263.75;5032339;28;20022;-50
2021/11/21 05:00:37;;;;;;;17.15;11.55;;;;;;;8.71;78.56;100264.59;5023064;28;20532;-51
2021/11/21 05:03:03;;;;;;;18.02;11.85;;;;;;;8.68;78.59;100253.25;5035273;28;20400;-51
2021/11/21 05:05:28;;;;;;;18.17;11.73;;;;;;;8.71;78.70;100261.13;5031340;28;20029;-50
2021/11/21 05:07:54;;;;;;;15.00;10.85;;;;;;;8.70;78.84;100254.09;5031496;28;20029;-52
2021/11/21 05:10:20;;;;;;;16.17;10.85;;;;;;;8.71;78.83;100263.75;5030362;28;20044;-51
2021/11/21 05:12:49;;;;;;;15.82;11.85;;;;;;;8.70;79.17;100265.50;5030864;28;20037;-51
2021/11/21 05:15:17;;;;;;;16.90;11.73;;;;;;;8.70;78.91;100267.25;5029922;28;20029;-52
2021/11/21 05:17:45;;;;;;;13.90;11.45;;;;;;;8.70;79.17;100269.88;5023760;28;20022;-50
2021/11/21 05:20:17;;;;;;;15.40;11.15;;;;;;;8.70;78.65;100269.88;5031606;28;20036;-50
2021/11/21 05:22:44;;;;;;;16.10;10.60;;;;;;;8.70;79.02;100275.13;5030924;28;20048;-50
2021/11/21 05:25:10;;;;;;;15.02;10.52;;;;;;;8.69;78.61;100276.03;5031082;28;20076;-50
2021/11/21 05:27:35;;;;;;;15.43;10.23;;;;;;;8.68;79.34;100271.66;5031989;28;20060;-51
2021/11/21 05:30:01;;;;;;;12.73;10.20;;;;;;;8.69;78.41;100269.00;5031139;28;20033;-53
2021/11/21 05:32:26;;;;;;;13.93;10.35;;;;;;;8.67;78.84;100265.50;5026533;28;20021;-51
2021/11/21 05:34:57;;;;;;;14.15;9.45;;;;;;;8.69;79.14;100270.75;5030579;28;20099;-51
2021/11/21 05:37:23;;;;;;;;;;;;;;;8.68;78.87;100258.50;5032105;28;20017;-52
2021/11/21 05:39:48;;;;;;;13.67;9.93;;;;;;;8.67;79.42;100264.66;5031241;28;20298;-52
2021/11/21 05:42:13;;;;;;;13.93;9.23;;;;;;;8.67;79.23;100256.78;5031254;28;20746;-51
2021/11/21 05:44:39;;;;;;;16.10;10.75;;;;;;;8.67;78.72;100254.13;5024562;28;20067;-50
2021/11/21 05:47:04;;;;;;;14.55;11.25;;;;;;;8.67;79.42;100251.50;5029588;28;20120;-57
2021/11/21 05:49:30;;;;;;;14.73;10.45;;;;;;;8.66;78.80;100252.38;5030792;28;20055;-50
2021/11/21 05:51:59;;;;;;;13.95;9.93;;;;;;;8.66;78.78;100248.00;5030447;28;20045;-50
2021/11/21 05:54:24;;;;;;;16.63;10.77;;;;;;;8.68;78.54;100250.63;5029826;28;20107;-51
2021/11/21 05:56:49;;;;;;;16.08;10.63;;;;;;;8.67;78.49;100248.88;5030677;28;20052;-51
2021/11/21 05:59:21;;;;;;;16.17;11.13;;;;;;;8.67;79.14;100239.22;5031087;28;20037;-51
2021/11/21 06:01:46;;;;;;;14.00;9.73;;;;;;;8.65;78.61;100240.13;5030415;28;20017;-51
2021/11/21 06:04:11;;;;;;;18.42;12.48;;;;;;;8.64;78.40;100241.00;5030621;28;20030;-51
2021/11/21 06:06:37;;;;;;;18.02;12.65;;;;;;;8.64;78.39;100239.25;5029495;28;20052;-52
2021/11/21 06:09:02;;;;;;;17.60;11.55;;;;;;;8.64;78.53;100233.13;5020395;28;20049;-53
2021/11/21 06:11:27;;;;;;;17.13;12.25;;;;;;;8.66;78.93;100232.22;5021042;28;20083;-57
2021/11/21 06:13:53;;;;;;;17.17;12.13;;;;;;;8.64;78.57;100233.97;5032128;28;20163;-51
2021/11/21 06:16:18;;;;;;;18.00;11.98;;;;;;;8.64;78.36;100239.25;5028012;28;20029;-51
2021/11/21 06:18:45;;;;;;;21.10;12.38;;;;;;;8.64;78.52;100239.25;5028639;28;21716;-51
2021/11/21 06:21:10;;;;;;;17.08;12.55;;;;;;;8.65;78.81;100237.50;5030583;28;20021;-50
2021/11/21 06:23:36;;;;;;;17.33;12.35;;;;;;;8.65;78.50;100242.75;5012926;28;20030;-50
2021/11/21 06:26:05;;;;;;;17.75;12.75;;;;;;;8.64;79.24;100231.34;5036631;28;20045;-50
2021/11/21 06:28:32;;;;;;;18.48;12.50;;;;;;;8.64;78.73;100233.97;5019757;28;20383;-51
2021/11/21 06:34:19;;;;;;;17.75;11.73;;;;;;;8.62;78.75;100227.88;5025924;28;20426;-51
2021/11/21 06:36:44;;;;;;;21.38;14.10;;;;;;;8.63;78.54;100220.88;5021144;28;20483;-52
2021/11/21 06:39:10;;;;;;;17.85;11.40;;;;;;;8.59;78.57;100213.00;5041281;28;20133;-50
2021/11/21 06:41:37;;;;;;;18.42;11.73;;;;;;;8.63;78.77;100219.09;5024993;28;20110;-55
2021/11/21 06:44:04;;;;;;;19.50;13.43;;;;;;;8.62;79.14;100213.84;5029067;28;20061;-52
2021/11/21 06:46:29;;;;;;;16.95;12.68;;;;;;;8.63;78.75;100220.88;5027955;28;20037;-50
2021/11/21 06:48:55;;;;;;;20.60;13.20;;;;;;;8.63;78.87;100224.34;5027806;28;20183;-52
2021/11/21 06:51:20;;;;;;;18.20;13.07;;;;;;;8.64;79.08;100212.09;5028646;28;20029;-51
2021/11/21 06:53:48;;;;;;;18.98;13.15;;;;;;;8.62;78.45;100220.00;5028833;28;20109;-51
2021/11/21 06:56:16;;;;;;;21.30;13.75;;;;;;;8.64;79.39;100217.34;5030323;28;20026;-51
2021/11/21 06:58:42;;;;;;;20.17;13.63;;;;;;;8.63;78.69;100227.00;5031346;28;20037;-50
2021/11/21 07:01:09;;;;;;;18.35;12.82;;;;;;;8.63;78.68;100226.13;5028545;28;20033;-50
2021/11/21 07:03:35;;;;;;;18.75;11.60;;;;;;;8.63;78.57;100218.25;5032365;28;20036;-51
2021/11/21 07:06:00;;;;;;;19.92;13.18;;;;;;;8.61;79.08;100213.00;5032544;28;20395;-51
2021/11/21 07:08:25;;;;;;;19.30;12.32;;;;;;;8.62;79.17;100213.84;5034233;28;20084;-51
2021/11/21 07:10:50;;;;;;;18.38;13.48;;;;;;;8.62;78.37;100209.47;5037739;28;20134;-52
2021/11/21 07:13:16;;;;;;;18.48;12.50;;;;;;;8.62;78.59;100211.22;5032306;28;20513;-52
2021/11/21 07:15:41;;;;;;;19.90;13.63;;;;;;;8.60;78.71;100217.38;5039730;28;20037;-51
2021/11/21 07:18:07;;;;;;;19.45;12.70;;;;;;;8.61;78.60;100223.50;5033922;28;20112;-51
2021/11/21 07:20:32;;;;;;;20.42;13.65;;;;;;;8.61;78.82;100223.50;5031829;28;20116;-54
2021/11/21 07:22:57;;;;;;;19.52;13.52;;;;;;;8.62;78.84;100224.38;5033690;28;20072;-51
2021/11/21 07:25:25;;;;;;;17.63;12.95;;;;;;;8.60;79.28;100220.00;5025161;28;20063;-50
2021/11/21 07:27:51;;;;;;;20.65;13.88;;;;;;;8.60;78.61;100227.88;5027110;28;20140;-51
2021/11/21 07:30:20;;;;;;;18.58;13.60;;;;;;;8.62;78.83;100232.25;5031537;28;20029;-53
2021/11/21 07:32:46;;;;;;;23.48;14.90;;;;;;;8.60;79.03;100227.88;5033001;28;20440;-50
2021/11/21 07:35:14;;;;;;;19.10;13.18;;;;;;;8.57;78.67;100230.53;5000119;28;20029;-51
2021/11/21 07:37:40;;;;;;;23.33;13.73;;;;;;;8.58;78.60;100231.41;5012053;28;20045;-51
2021/11/21 07:40:08;;;;;;;20.75;14.00;;;;;;;8.58;78.78;100234.91;5031201;28;20025;-51
2021/11/21 07:42:33;;;;;;;21.52;13.32;;;;;;;8.56;79.15;100226.16;5032756;28;20120;-52
2021/11/21 07:44:59;;;;;;;21.45;14.57;;;;;;;8.59;79.40;100226.16;5027234;28;20108;-50
2021/11/21 07:47:24;;;;;;;19.63;13.90;;;;;;;8.56;78.82;100220.91;5026018;28;20033;-51
2021/11/21 07:49:49;;;;;;;18.50;12.98;;;;;;;8.58;79.23;100224.38;5034931;28;20032;-51
2021/11/21 07:52:16;;;;;;;21.15;14.07;;;;;;;8.59;79.27;100212.13;5034771;28;20030;-51
2021/11/21 07:54:43;;;;;;;19.65;13.32;;;;;;;8.56;79.01;100214.78;5031682;28;20406;-50
2021/11/21 07:57:08;;;;;;;21.30;14.80;;;;;;;8.58;78.57;100219.13;5031258;28;20116;-51
2021/11/21 07:59:34;;;;;;;23.67;13.55;;;;;;;8.58;79.02;100213.03;5019647;28;20112;-51
2021/11/21 08:01:59;;;;;;;20.52;14.20;;;;;;;8.58;78.77;100211.25;5028885;28;20049;-51
2021/11/21 08:04:24;;;;;;;23.13;14.80;;;;;;;8.58;78.77;100213.88;5030777;28;20025;-50
2021/11/21 08:06:50;;;;;;;22.77;13.77;;;;;;;8.57;78.66;100214.75;5032898;28;20064;-51
2021/11/21 08:09:16;;;;;;;21.65;14.05;;;;;;;8.57;78.71;100209.50;5032766;28;20470;-51
2021/11/21 08:11:41;;;;;;;19.92;14.50;;;;;;;8.56;78.45;100215.66;5024036;28;20045;-51
2021/11/21 08:14:07;;;;;;;19.88;13.77;;;;;;;8.57;78.75;100220.03;5029826;28;20021;-51
2021/11/21 08:16:32;;;;;;;21.70;13.52;;;;;;;8.57;78.93;100217.41;5033309;28;20452;-50
2021/11/21 08:18:57;;;;;;;22.10;14.77;;;;;;;8.57;79.14;100219.16;5017889;28;20029;-50
2021/11/21 08:21:22;;;;;;;20.10;13.93;;;;;;;8.52;78.70;100208.66;5023213;28;20380;-52
2021/11/21 08:23:48;;;;;;;22.08;14.30;;;;;;;8.56;79.00;100215.66;5007097;28;20026;-50
2021/11/21 08:26:13;;;;;;;18.67;12.57;;;;;;;8.55;78.93;100216.56;5025696;28;20033;-51
2021/11/21 08:28:39;;;;;;;20.75;13.95;;;;;;;8.56;78.62;100215.66;5032424;28;20531;-51
2021/11/21 08:31:06;;;;;;;24.00;15.20;;;;;;;8.55;78.93;100218.28;5028228;28;20039;-51
2021/11/21 08:33:32;;;;;;;21.85;14.27;;;;;;;8.56;78.95;100214.78;5025051;28;20029;-52
2021/11/21 08:36:01;;;;;;;19.77;13.77;;;;;;;8.55;79.42;100216.56;5028312;28;20430;-50
2021/11/21 08:38:27;;;;;;;21.25;13.93;;;;;;;8.54;79.08;100217.41;5029307;28;20117;-51
2021/11/21 08:40:53;;;;;;;21.40;13.93;;;;;;;8.55;78.74;100216.56;5027415;28;20022;-52
2021/11/21 08:43:18;;;;;;;22.95;14.23;;;;;;;8.54;78.88;100212.16;5021690;28;20079;-54
2021/11/21 08:45:45;;;;;;;21.73;14.05;;;;;;;8.54;78.82;100217.41;5025847;28;20029;-52
2021/11/21 08:48:11;;;;;;;20.63;14.45;;;;;;;8.54;78.82;100217.41;5026913;28;20029;-51
2021/11/21 08:50:36;;;;;;;19.80;12.75;;;;;;;8.53;78.84;100215.69;5026761;28;20035;-51
2021/11/21 08:53:02;;;;;;;20.15;13.93;;;;;;;8.54;78.35;100212.16;5031976;28;20053;-51
2021/11/21 08:55:27;;;;;;;17.67;13.25;;;;;;;8.55;78.48;100224.44;5031942;28;20022;-50
2021/11/21 08:57:52;;;;;;;23.85;13.60;;;;;;;8.54;78.92;100217.41;5032476;28;20033;-50
2021/11/21 09:00:18;;;;;;;20.33;13.57;;;;;;;8.55;79.53;100216.56;5025948;28;20068;-51
2021/11/21 09:02:44;;;;;;;23.48;15.40;;;;;;;8.54;78.67;100206.03;5009874;28;20083;-51
2021/11/21 09:05:10;;;;;;;19.63;13.27;;;;;;;8.53;78.73;100210.41;5032516;28;20030;-51
2021/11/21 09:07:40;;;;;;;20.13;13.43;;;;;;;8.54;78.82;100219.19;5029885;28;20414;-52
2021/11/21 09:10:10;;;;;;;21.52;14.05;;;;;;;8.53;78.74;100213.03;5030102;28;20042;-56
2021/11/21 09:12:36;;;;;;;21.20;14.52;;;;;;;8.53;79.00;100217.38;5031213;28;20030;-51
2021/11/21 09:15:03;;;;;;;23.38;13.98;;;;;;;8.53;78.53;100220.94;5032633;28;20079;-50
2021/11/21 09:17:28;;;;;;;22.08;13.18;;;;;;;8.54;78.57;100222.66;5031887;28;20025;-50
2021/11/21 09:19:54;;;;;;;20.63;13.07;;;;;;;8.55;79.35;100228.81;5012676;28;20041;-54
2021/11/21 09:22:19;;;;;;;23.15;13.70;;;;;;;8.53;78.94;100218.31;5024974;28;20061;-50
2021/11/21 09:24:44;;;;;;;22.73;14.93;;;;;;;8.53;78.70;100220.00;5015260;28;20028;-52
2021/11/21 09:27:14;;;;;;;17.75;12.95;;;;;;;8.54;78.58;100221.81;5042598;28;20115;-50
2021/11/21 09:29:43;;;;;;;22.35;13.95;;;;;;;8.53;79.20;100226.19;5029945;28;20211;-53
2021/11/21 09:32:09;;;;;;;21.30;13.98;;;;;;;8.53;79.47;100217.38;5032920;28;20029;-51
2021/11/21 09:34:35;;;;;;;19.20;13.98;;;;;;;8.53;78.93;100220.94;5036895;28;20032;-50
2021/11/21 09:37:00;;;;;;;21.60;13.75;;;;;;;8.52;78.89;100218.28;5038523;28;20017;-51
2021/11/21 09:39:25;;;;;;;20.33;13.52;;;;;;;8.52;78.64;100219.16;5034214;28;20032;-50
2021/11/21 09:41:51;;;;;;;22.17;13.93;;;;;;;8.48;79.54;100207.78;5032599;28;20029;-51
2021/11/21 09:44:16;;;;;;;23.20;14.20;;;;;;;8.52;78.64;100224.41;5029875;28;20060;-51
2021/11/21 09:46:41;;;;;;;18.55;13.18;;;;;;;8.53;79.40;100222.66;5026292;28;20036;-52
2021/11/21 09:49:06;;;;;;;21.90;14.05;;;;;;;8.52;79.10;100219.16;5035985;28;20356;-53
2021/11/21 09:51:32;;;;;;;23.05;14.02;;;;;;;8.52;78.92;100221.78;5033749;28;20036;-51
2021/11/21 09:53:57;;;;;;;19.75;13.82;;;;;;;8.53;79.11;100214.75;5029654;28;20440;-51
2021/11/21 09:56:22;;;;;;;18.65;13.20;;;;;;;8.52;78.73;100216.53;5009706;28;20025;-52
2021/11/21 09:58:49;;;;;;;19.98;12.98;;;;;;;8.52;79.63;100213.91;5023116;28;20086;-51
2021/11/21 10:01:40;;;;;;;22.27;14.18;;;;;;;8.52;79.30;100213.03;5026297;28;20068;-53
2021/11/21 10:04:09;;;;;;;20.63;13.80;;;;;;;8.52;79.01;100213.03;5023173;28;20384;-50
2021/11/21 10:06:45;;;;;;;22.58;13.77;;;;;;;8.51;78.72;100217.44;5032705;28;20029;-51
2021/11/21 10:09:13;;;;;;;18.98;12.77;;;;;;;8.52;79.89;100219.16;5016860;28;20034;-51
2021/11/21 10:12:01;;;;;;;21.45;13.90;;;;;;;8.52;79.77;100211.28;5026206;28;20097;-54
2021/11/21 10:14:27;;;;;;;19.00;13.38;;;;;;;8.51;79.23;100206.91;5027646;28;20103;-56
2021/11/21 10:17:17;;;;;;;19.15;13.20;;;;;;;8.51;79.21;100211.28;5028743;28;20059;-50
2021/11/21 10:20:11;;;;;;;22.27;13.95;;;;;;;8.52;79.96;100213.91;5025850;28;20029;-50
2021/11/21 10:22:53;;;;;;;19.73;12.82;;;;;;;8.52;80.16;100205.13;5025140;28;20032;-51
2021/11/21 10:25:31;;;;;;;20.23;14.27;;;;;;;8.51;80.12;100209.53;5030847;28;20691;-51
2021/11/21 10:28:06;;;;;;;20.58;14.00;;;;;;;8.52;80.12;100208.66;5021225;28;20032;-51
2021/11/21 10:30:32;;;;;;;18.92;13.55;;;;;;;8.52;79.40;100213.03;5025417;28;20108;-51
2021/11/21 10:33:05;;;;;;;21.42;13.85;;;;;;;8.50;79.87;100199.03;5035334;28;20390;-50
2021/11/21 10:35:31;;;;;;;22.10;14.25;;;;;;;8.52;79.77;100207.78;5036052;28;20091;-51
2021/11/21 10:37:58;;;;;;;18.70;12.23;;;;;;;8.47;79.17;100199.91;5035028;28;20455;-51
2021/11/21 10:40:24;;;;;;;21.42;12.88;;;;;;;8.47;79.99;100192.03;5030086;28;20444;-50
2021/11/21 10:42:51;;;;;;;16.65;12.55;;;;;;;8.47;80.15;100199.91;5029724;28;20021;-53
2021/11/21 10:45:29;;;;;;;17.88;12.90;;;;;;;8.50;79.53;100192.00;5034314;28;20025;-53
2021/11/21 10:48:16;;;;;;;19.77;13.48;;;;;;;8.51;79.70;100200.78;5027040;28;20487;-53
2021/11/21 10:50:42;;;;;;;18.60;12.60;;;;;;;8.51;79.67;100195.53;5031896;28;20115;-51
2021/11/21 10:53:09;;;;;;;19.55;13.10;;;;;;;8.49;79.11;100187.66;5034094;28;20448;-51
2021/11/21 10:55:35;;;;;;;19.85;13.20;;;;;;;8.51;79.62;100193.78;5032563;28;20087;-51
2021/11/21 10:58:12;;;;;;;18.30;13.00;;;;;;;8.50;79.94;100199.03;5031875;28;20480;-50
2021/11/21 11:00:38;;;;;;;18.08;12.77;;;;;;;8.49;79.56;100190.28;5033339;28;20037;-50
2021/11/21 11:03:03;;;;;;;19.23;13.30;;;;;;;8.49;80.47;100185.00;5032463;28;20018;-50
2021/11/21 11:05:31;;;;;;;19.77;12.68;;;;;;;8.50;80.40;100194.63;5035855;28;20040;-52
2021/11/21 11:08:02;;;;;;;19.08;12.82;;;;;;;8.50;79.97;100197.25;5041405;28;20029;-51
2021/11/21 11:10:38;;;;;;;22.40;14.35;;;;;;;8.52;80.95;100197.25;5032055;28;20040;-51
2021/11/21 11:13:11;;;;;;;20.27;13.55;;;;;;;8.49;80.27;100192.91;5025111;28;20500;-52
2021/11/21 11:15:39;;;;;;;17.83;12.60;;;;;;;8.50;79.36;100192.00;5034022;28;20013;-50
2021/11/21 11:18:07;;;;;;;18.15;13.30;;;;;;;8.50;79.99;100194.63;5030388;28;20471;-49